< Cyclone 199801 1998 Season Cyclone 199803 >
Cyclone 199802 (SID)
General InformationDetailed Track InformationTrack Information on Google MapsList of All Images || ResourceGoogle EarthGE AnimationAtom FeedGeoJSON
Detalied Best Track Wind (Time Zone = UTC)
Year Month Day Hour Lat. Long. Wind (kt) Gust (kt) Direc. of Major Storm Axis Radius of Major Storm Axis (nm) Radius of Minor Storm Axis (nm) Direc. of Major Gale Axis Radius of Major Gale Axis (nm) Radius of Minor Gale Axis (nm) Image
1997 12 24 18 -13.1 130.1 25 -1 symmetric - - symmetric - - Image
1997 12 25 00 -12.6 129.7 25 -1 symmetric - - symmetric - - Image
1997 12 25 06 -12.1 129.8 25 -1 symmetric - - symmetric - - Image
1997 12 25 12 -11.5 130.2 25 -1 symmetric - - symmetric - - Image
1997 12 25 18 -11.0 131.2 30 -1 symmetric - - symmetric - - Image
1997 12 26 00 -10.8 132.2 35 -1 symmetric - - symmetric - - Image
1997 12 26 03 -10.9 132.6 35 -1 symmetric - - symmetric - - Image
1997 12 26 06 -10.9 132.9 35 -1 symmetric - - symmetric - - Image
1997 12 26 12 -11.2 133.8 40 -1 symmetric - - symmetric - - Image
1997 12 26 18 -11.5 134.9 40 -1 symmetric - - symmetric - - Image
1997 12 27 00 -12.0 135.7 35 -1 symmetric - - symmetric - - Image
1997 12 27 03 -12.1 136.2 40 -1 symmetric - - symmetric - - Image
1997 12 27 06 -12.3 136.3 40 -1 symmetric - - symmetric - - Image
1997 12 27 09 -12.7 137.0 45 -1 symmetric - - symmetric - - Image
1997 12 27 12 -13.2 137.6 45 -1 symmetric - - symmetric - - Image
1997 12 27 18 -13.9 138.0 50 -1 symmetric - - symmetric - - Image
1997 12 28 00 -14.8 138.5 45 -1 symmetric - - symmetric - - Image
1997 12 28 06 -15.8 138.8 40 -1 symmetric - - symmetric - - Image
1997 12 28 09 -16.1 138.8 35 -1 symmetric - - symmetric - - Image
1997 12 28 12 -16.3 138.8 30 -1 symmetric - - symmetric - - Image
1997 12 28 18 -16.4 138.0 25 -1 symmetric - - symmetric - - Image
1997 12 29 00 -16.2 137.2 25 -1 symmetric - - symmetric - - Image
< Cyclone 199801 1998 Season Cyclone 199803 >

Help